Time;durP1;ratioP1;P1;durP2;ratioP2;P2;SDS_P1;SDS_P2;PMS_P1;PMS_P2;Temp;Humidity;BMP_temperature;BMP_pressure;BME280_temperature;BME280_humidity;BME280_pressure;Samples;Min_cycle;Max_cycle;Signal;HPM_P1;HPM_P2
2021/10/31 00:00:15;;;;;;;5.20;2.23;;;;;;;;;;5002387;28;20555;-80
2021/10/31 00:02:41;;;;;;;3.17;2.10;;;;;;;;;;5013386;28;20477;-79
2021/10/31 00:05:08;;;;;;;4.00;1.90;;;;;;;;;;4998826;28;20250;-80
2021/10/31 00:07:34;;;;;;;12.02;3.15;;;;;;;;;;4998361;28;20258;-80
2021/10/31 00:10:00;;;;;;;2.63;2.20;;;;;;;;;;5005278;28;20217;-81
2021/10/31 00:12:26;;;;;;;2.95;2.00;;;;;;;;;;5003079;28;20442;-81
2021/10/31 00:14:52;;;;;;;4.80;1.83;;;;;;;;;;4998609;28;20191;-80
2021/10/31 00:17:20;;;;;;;4.13;2.35;;;;;;;;;;4997192;28;20472;-81
2021/10/31 00:19:46;;;;;;;6.05;2.10;;;;;;;;;;4999582;28;20187;-81
2021/10/31 00:22:12;;;;;;;3.08;2.30;;;;;;;;;;5002625;28;20202;-79
2021/10/31 00:24:38;;;;;;;5.30;2.58;;;;;;;;;;5000918;28;20191;-81
2021/10/31 00:27:04;;;;;;;1.77;1.67;;;;;;;;;;4989306;28;20214;-81
2021/10/31 00:29:30;;;;;;;2.47;2.28;;;;;;;;;;4998474;28;20183;-81
2021/10/31 00:31:56;;;;;;;2.47;1.98;;;;;;;;;;4998563;28;20179;-81
2021/10/31 00:34:22;;;;;;;3.47;1.52;;;;;;;;;;4996768;28;20262;-81
2021/10/31 00:36:48;;;;;;;2.75;1.60;;;;;;;;;;4999936;28;20180;-81
2021/10/31 00:39:14;;;;;;;4.93;1.98;;;;;;;;;;4991901;28;20187;-82
2021/10/31 00:41:40;;;;;;;4.22;2.00;;;;;;;;;;4988736;28;20249;-82
2021/10/31 00:44:06;;;;;;;6.20;2.20;;;;;;;;;;4989520;28;20242;-81
2021/10/31 00:46:32;;;;;;;5.38;1.40;;;;;;;;;;4999796;28;20210;-81
2021/10/31 00:48:58;;;;;;;2.10;1.90;;;;;;;;;;4998538;28;20203;-81
2021/10/31 00:51:28;;;;;;;2.60;1.85;;;;;;;;;;4992291;28;20182;-82
2021/10/31 00:53:56;;;;;;;1.90;1.70;;;;;;;;;;4987456;28;20203;-81
2021/10/31 00:56:23;;;;;;;4.68;1.95;;;;;;;;;;5003237;28;20174;-81
2021/10/31 00:58:49;;;;;;;2.80;2.05;;;;;;;;;;4994057;28;20202;-81
2021/10/31 01:01:15;;;;;;;2.20;1.93;;;;;;;;;;4997724;28;20187;-81
2021/10/31 01:03:42;;;;;;;3.08;2.30;;;;;;;;;;4992908;28;20442;-81
2021/10/31 01:06:28;;;;;;;2.50;1.83;;;;;;;;;;4989201;28;20203;-81
2021/10/31 01:08:54;;;;;;;2.30;2.10;;;;;;;;;;5015317;28;20179;-81
2021/10/31 01:11:31;;;;;;;3.03;1.60;;;;;;;;;;4997839;28;20199;-81
2021/10/31 01:14:08;;;;;;;2.78;1.65;;;;;;;;;;4991302;28;20243;-82
2021/10/31 01:16:34;;;;;;;3.08;1.90;;;;;;;;;;4996852;28;20183;-82
2021/10/31 01:19:06;;;;;;;8.40;2.10;;;;;;;;;;4996234;28;20197;-82
2021/10/31 01:21:35;;;;;;;3.22;1.80;;;;;;;;;;4999793;28;20486;-83
2021/10/31 01:24:07;;;;;;;1.85;1.65;;;;;;;;;;4988375;28;20262;-82
2021/10/31 01:26:52;;;;;;;2.15;1.50;;;;;;;;;;4996807;28;20297;-82
2021/10/31 01:29:22;;;;;;;1.45;1.35;;;;;;;;;;4998592;28;20183;-82
2021/10/31 01:31:48;;;;;;;3.58;2.38;;;;;;;;;;4992904;28;20218;-82
2021/10/31 01:34:14;;;;;;;3.13;2.00;;;;;;;;;;4991320;28;20171;-82
2021/10/31 01:36:54;;;;;;;2.30;1.40;;;;;;;;;;4993028;28;20438;-82
2021/10/31 01:39:32;;;;;;;2.15;1.60;;;;;;;;;;5001111;28;20425;-81
2021/10/31 01:42:21;;;;;;;3.17;1.50;;;;;;;;;;4988650;28;20241;-81
2021/10/31 01:44:47;;;;;;;3.35;2.67;;;;;;;;;;4996862;28;20418;-81
2021/10/31 01:47:13;;;;;;;3.55;1.70;;;;;;;;;;4992975;28;20461;-81
2021/10/31 01:49:44;;;;;;;2.27;1.60;;;;;;;;;;4995179;28;20193;-82
2021/10/31 01:52:42;;;;;;;2.20;1.70;;;;;;;;;;4995068;28;20458;-82
2021/10/31 01:55:10;;;;;;;4.55;1.92;;;;;;;;;;4960528;28;20188;-82
2021/10/31 01:57:40;;;;;;;8.05;2.63;;;;;;;;;;4953371;28;20233;-82
2021/10/31 02:00:10;;;;;;;2.30;2.13;;;;;;;;;;4980831;28;20235;-82
2021/10/31 02:02:40;;;;;;;4.40;1.80;;;;;;;;;;4970633;28;20201;-82
2021/10/31 02:05:07;;;;;;;2.65;1.73;;;;;;;;;;4981585;28;20219;-82
2021/10/31 02:07:36;;;;;;;3.17;1.52;;;;;;;;;;4985111;28;20187;-82
2021/10/31 02:10:02;;;;;;;2.00;1.80;;;;;;;;;;4965294;28;20356;-83
2021/10/31 02:12:29;;;;;;;1.33;1.20;;;;;;;;;;4955798;28;20340;-83
2021/10/31 02:14:56;;;;;;;2.45;1.80;;;;;;;;;;4956759;28;20194;-82
2021/10/31 02:17:22;;;;;;;2.85;1.60;;;;;;;;;;4971704;28;20224;-82
2021/10/31 02:19:50;;;;;;;1.90;1.60;;;;;;;;;;4966946;28;20662;-82
2021/10/31 02:22:24;;;;;;;3.58;1.80;;;;;;;;;;4964707;28;20288;-83
2021/10/31 02:24:50;;;;;;;2.45;2.00;;;;;;;;;;4967094;28;20221;-83
2021/10/31 02:27:20;;;;;;;2.20;2.00;;;;;;;;;;4952553;29;20205;-83
2021/10/31 02:29:54;;;;;;;2.33;1.80;;;;;;;;;;4965523;28;20184;-83
2021/10/31 02:32:25;;;;;;;2.08;1.80;;;;;;;;;;4996497;28;20583;-83
2021/10/31 02:34:51;;;;;;;2.25;1.70;;;;;;;;;;4996507;28;20178;-83
2021/10/31 02:37:17;;;;;;;2.85;1.85;;;;;;;;;;4999582;28;20492;-83
2021/10/31 02:39:44;;;;;;;2.20;2.00;;;;;;;;;;5001485;28;20190;-83
2021/10/31 02:42:10;;;;;;;2.05;1.85;;;;;;;;;;5002630;28;20194;-83
2021/10/31 02:44:36;;;;;;;4.18;1.95;;;;;;;;;;4999862;28;20218;-83
2021/10/31 02:47:03;;;;;;;2.78;1.50;;;;;;;;;;4992115;28;20212;-83
2021/10/31 02:49:29;;;;;;;2.92;1.90;;;;;;;;;;4996026;28;20184;-82
2021/10/31 02:52:04;;;;;;;3.92;1.85;;;;;;;;;;4995784;28;20184;-83
2021/10/31 02:54:37;;;;;;;1.95;1.77;;;;;;;;;;5008102;28;20183;-84
2021/10/31 02:57:09;;;;;;;2.55;1.67;;;;;;;;;;5004162;28;20183;-84
2021/10/31 02:59:35;;;;;;;3.92;1.90;;;;;;;;;;4991321;28;20453;-83
2021/10/31 03:02:01;;;;;;;3.50;2.00;;;;;;;;;;5002401;28;20434;-84
2021/10/31 03:04:28;;;;;;;4.03;2.22;;;;;;;;;;4999398;28;21032;-84
2021/10/31 03:06:57;;;;;;;1.73;1.60;;;;;;;;;;5001333;28;20230;-84
2021/10/31 03:09:23;;;;;;;2.08;1.88;;;;;;;;;;5004996;28;20205;-83
2021/10/31 03:11:49;;;;;;;3.47;2.10;;;;;;;;;;4988904;28;20187;-83
2021/10/31 03:14:15;;;;;;;6.63;2.60;;;;;;;;;;5000034;28;20194;-84
2021/10/31 03:16:41;;;;;;;3.90;2.17;;;;;;;;;;4996606;28;20226;-84
2021/10/31 03:19:07;;;;;;;3.92;1.90;;;;;;;;;;5004971;28;20443;-84
2021/10/31 03:21:33;;;;;;;3.90;1.90;;;;;;;;;;4995508;28;20196;-84
2021/10/31 03:23:59;;;;;;;3.88;2.20;;;;;;;;;;4999324;28;20643;-84
2021/10/31 03:26:25;;;;;;;2.97;2.50;;;;;;;;;;4987661;28;20212;-83
2021/10/31 03:28:51;;;;;;;3.30;2.25;;;;;;;;;;5000132;28;20189;-84
2021/10/31 03:31:17;;;;;;;2.78;2.10;;;;;;;;;;4998092;28;20361;-85
2021/10/31 03:33:43;;;;;;;6.45;1.98;;;;;;;;;;5006041;28;20187;-85
2021/10/31 03:36:09;;;;;;;4.78;1.80;;;;;;;;;;5004468;28;20318;-84
2021/10/31 03:38:35;;;;;;;2.30;2.08;;;;;;;;;;4999574;28;20422;-84
2021/10/31 03:41:01;;;;;;;2.45;2.25;;;;;;;;;;5001016;28;20795;-85
2021/10/31 03:43:27;;;;;;;4.50;2.20;;;;;;;;;;5005257;28;20382;-85
2021/10/31 03:45:53;;;;;;;2.13;1.90;;;;;;;;;;5003610;28;20557;-84
2021/10/31 03:48:19;;;;;;;5.82;2.10;;;;;;;;;;4994054;28;20498;-85
2021/10/31 03:50:45;;;;;;;3.83;2.08;;;;;;;;;;5003942;28;20191;-86
2021/10/31 03:53:11;;;;;;;5.43;1.80;;;;;;;;;;4990284;28;20194;-85
2021/10/31 03:55:37;;;;;;;3.63;2.10;;;;;;;;;;4997852;28;20430;-85
2021/10/31 03:58:03;;;;;;;6.80;2.07;;;;;;;;;;4995969;28;20975;-84
2021/10/31 04:00:29;;;;;;;2.83;2.63;;;;;;;;;;4990925;28;20490;-83
2021/10/31 04:02:55;;;;;;;5.80;2.58;;;;;;;;;;5003625;28;20187;-84
2021/10/31 04:05:21;;;;;;;3.08;2.78;;;;;;;;;;4998490;28;20183;-83
2021/10/31 04:07:47;;;;;;;4.10;3.13;;;;;;;;;;4993888;28;20172;-83
2021/10/31 04:10:14;;;;;;;3.65;3.03;;;;;;;;;;4998276;28;20183;-83
2021/10/31 04:12:40;;;;;;;4.78;3.00;;;;;;;;;;5002112;28;20234;-84
2021/10/31 04:15:07;;;;;;;7.43;3.00;;;;;;;;;;4999212;28;20179;-82
2021/10/31 04:17:33;;;;;;;4.28;2.70;;;;;;;;;;4997798;28;20658;-84
2021/10/31 04:20:00;;;;;;;6.13;2.83;;;;;;;;;;5004850;28;20214;-84
2021/10/31 04:22:26;;;;;;;7.65;3.47;;;;;;;;;;4997412;28;20179;-83
2021/10/31 04:24:52;;;;;;;8.45;3.42;;;;;;;;;;4993606;28;20191;-83
2021/10/31 04:27:18;;;;;;;4.47;3.55;;;;;;;;;;5003709;28;20195;-83
2021/10/31 04:29:44;;;;;;;4.10;3.70;;;;;;;;;;4995947;28;20205;-82
2021/10/31 04:32:10;;;;;;;3.70;3.40;;;;;;;;;;4998897;28;20183;-82
2021/10/31 04:34:36;;;;;;;4.10;3.30;;;;;;;;;;4999386;28;20183;-82
2021/10/31 04:37:03;;;;;;;8.20;3.75;;;;;;;;;;4997868;28;20195;-82
2021/10/31 04:39:29;;;;;;;6.05;4.28;;;;;;;;;;5001672;28;20203;-82
2021/10/31 04:42:02;;;;;;;9.85;4.43;;;;;;;;;;4998218;28;20191;-82
2021/10/31 04:44:28;;;;;;;6.03;4.55;;;;;;;;;;4996959;28;20262;-82
2021/10/31 04:46:54;;;;;;;4.65;3.50;;;;;;;;;;4997871;28;20309;-82
2021/10/31 04:49:20;;;;;;;5.72;3.85;;;;;;;;;;4994691;28;20661;-82
2021/10/31 04:51:46;;;;;;;7.00;3.87;;;;;;;;;;4994485;28;20190;-82
2021/10/31 04:54:12;;;;;;;5.60;3.90;;;;;;;;;;5002698;28;20454;-83
2021/10/31 04:56:38;;;;;;;9.50;4.30;;;;;;;;;;4996781;28;20196;-83
2021/10/31 04:59:04;;;;;;;5.73;3.40;;;;;;;;;;5002485;28;20927;-82
2021/10/31 05:01:30;;;;;;;4.00;3.45;;;;;;;;;;5001257;28;20441;-82
2021/10/31 05:03:57;;;;;;;4.07;3.60;;;;;;;;;;4997837;28;20203;-81
2021/10/31 05:06:22;;;;;;;5.97;3.45;;;;;;;;;;5001543;28;20415;-81
2021/10/31 05:08:48;;;;;;;4.00;3.70;;;;;;;;;;4991081;28;20190;-82
2021/10/31 05:11:14;;;;;;;4.77;3.30;;;;;;;;;;4993579;28;20489;-82
2021/10/31 05:13:41;;;;;;;3.92;3.38;;;;;;;;;;4990923;28;20450;-81
2021/10/31 05:16:07;;;;;;;4.82;3.53;;;;;;;;;;4998114;28;20195;-82
2021/10/31 05:18:34;;;;;;;3.70;3.30;;;;;;;;;;4998085;28;20234;-82
2021/10/31 05:21:01;;;;;;;5.38;3.80;;;;;;;;;;5001426;28;20179;-82
2021/10/31 05:23:27;;;;;;;4.65;3.95;;;;;;;;;;5001103;28;20206;-82
2021/10/31 05:25:53;;;;;;;3.78;3.45;;;;;;;;;;5001714;28;20310;-82
2021/10/31 05:28:19;;;;;;;3.10;2.80;;;;;;;;;;4994793;28;20183;-83
2021/10/31 05:30:46;;;;;;;4.50;3.60;;;;;;;;;;4996419;28;20510;-82
2021/10/31 05:33:12;;;;;;;4.40;3.40;;;;;;;;;;5001971;28;20179;-82
2021/10/31 05:35:38;;;;;;;7.75;3.33;;;;;;;;;;5002177;28;20941;-82
2021/10/31 05:38:05;;;;;;;3.45;3.15;;;;;;;;;;4996554;28;20170;-82
2021/10/31 05:40:31;;;;;;;3.45;3.15;;;;;;;;;;4998210;28;20178;-83
2021/10/31 05:42:57;;;;;;;4.10;2.95;;;;;;;;;;5002337;28;20189;-83
2021/10/31 05:45:25;;;;;;;10.00;3.35;;;;;;;;;;5001021;28;20175;-82
2021/10/31 05:47:52;;;;;;;6.95;2.85;;;;;;;;;;4994612;28;20186;-83
2021/10/31 05:50:18;;;;;;;4.38;3.08;;;;;;;;;;4994657;28;20257;-82
2021/10/31 05:52:45;;;;;;;5.30;2.80;;;;;;;;;;5001270;28;20214;-83
2021/10/31 05:55:12;;;;;;;3.25;2.75;;;;;;;;;;4998724;28;20521;-82
2021/10/31 05:57:38;;;;;;;5.00;3.00;;;;;;;;;;4994323;28;20210;-82
2021/10/31 06:00:07;;;;;;;3.22;2.95;;;;;;;;;;5001439;28;20197;-82
2021/10/31 06:02:33;;;;;;;4.43;2.72;;;;;;;;;;4996007;28;20210;-83
2021/10/31 06:04:59;;;;;;;5.90;2.80;;;;;;;;;;5000915;28;20206;-82
2021/10/31 06:07:26;;;;;;;5.50;2.88;;;;;;;;;;4998139;28;20210;-82
2021/10/31 06:09:52;;;;;;;3.50;2.70;;;;;;;;;;4995947;28;20189;-82
2021/10/31 06:12:18;;;;;;;3.55;2.35;;;;;;;;;;4996199;28;20297;-83
2021/10/31 06:14:44;;;;;;;3.30;3.00;;;;;;;;;;5002138;28;20277;-82
2021/10/31 06:17:10;;;;;;;3.90;3.50;;;;;;;;;;4997011;28;20222;-82
2021/10/31 06:19:37;;;;;;;3.55;2.83;;;;;;;;;;5002475;28;20694;-83
2021/10/31 06:22:03;;;;;;;5.10;3.10;;;;;;;;;;5000043;28;20187;-81
2021/10/31 06:24:29;;;;;;;4.20;3.22;;;;;;;;;;4993437;28;20183;-83
2021/10/31 06:26:56;;;;;;;5.88;3.50;;;;;;;;;;4988047;28;20207;-82
2021/10/31 06:29:22;;;;;;;3.20;2.90;;;;;;;;;;4988266;28;20180;-82
2021/10/31 06:31:48;;;;;;;3.85;2.70;;;;;;;;;;4996979;28;20206;-82
2021/10/31 06:34:14;;;;;;;3.03;2.72;;;;;;;;;;5000487;28;20271;-82
2021/10/31 06:36:40;;;;;;;6.05;2.53;;;;;;;;;;4999458;28;20203;-83
2021/10/31 06:39:06;;;;;;;3.13;2.50;;;;;;;;;;4991927;28;20670;-82
2021/10/31 06:41:32;;;;;;;3.42;2.92;;;;;;;;;;4986534;28;20199;-82
2021/10/31 06:43:58;;;;;;;5.40;2.40;;;;;;;;;;4992716;28;20674;-82
2021/10/31 06:46:25;;;;;;;4.30;2.92;;;;;;;;;;5000952;28;20207;-82
2021/10/31 06:48:52;;;;;;;4.15;3.13;;;;;;;;;;4992965;28;20176;-82
2021/10/31 06:51:18;;;;;;;3.90;2.83;;;;;;;;;;4997260;28;20175;-81
2021/10/31 06:53:44;;;;;;;6.45;2.70;;;;;;;;;;4999866;28;20175;-81
2021/10/31 06:56:11;;;;;;;3.30;2.70;;;;;;;;;;4995767;28;20172;-80
2021/10/31 06:58:37;;;;;;;2.88;2.67;;;;;;;;;;4995605;28;20259;-80
2021/10/31 07:01:03;;;;;;;10.93;4.00;;;;;;;;;;4990844;28;20187;-81
2021/10/31 07:03:29;;;;;;;3.08;2.78;;;;;;;;;;5002078;28;20234;-82
2021/10/31 07:05:55;;;;;;;6.25;3.33;;;;;;;;;;4994507;28;20684;-81
2021/10/31 07:08:21;;;;;;;3.97;2.80;;;;;;;;;;4998059;28;20206;-81
2021/10/31 07:10:47;;;;;;;3.70;2.22;;;;;;;;;;4999225;28;20238;-80
2021/10/31 07:13:13;;;;;;;3.65;2.88;;;;;;;;;;5004417;28;20198;-80
2021/10/31 07:15:39;;;;;;;5.13;2.23;;;;;;;;;;4997897;28;20194;-81
2021/10/31 07:18:05;;;;;;;5.03;2.80;;;;;;;;;;4998647;28;20542;-80
2021/10/31 07:20:32;;;;;;;2.40;2.20;;;;;;;;;;4999037;28;20202;-80
2021/10/31 07:22:58;;;;;;;6.20;2.50;;;;;;;;;;4997491;28;20214;-81
2021/10/31 07:25:24;;;;;;;3.00;2.70;;;;;;;;;;5004613;28;20209;-80
2021/10/31 07:27:51;;;;;;;2.65;2.45;;;;;;;;;;5004710;28;20183;-80
2021/10/31 07:30:17;;;;;;;2.30;2.10;;;;;;;;;;4994209;28;20251;-80
2021/10/31 07:32:43;;;;;;;2.13;1.92;;;;;;;;;;4997527;28;20179;-79
2021/10/31 07:35:10;;;;;;;4.35;3.00;;;;;;;;;;4988422;28;20179;-79
2021/10/31 07:37:36;;;;;;;3.25;2.42;;;;;;;;;;4989714;28;20187;-79
2021/10/31 07:40:05;;;;;;;2.63;2.13;;;;;;;;;;4991902;28;20191;-79
2021/10/31 07:42:31;;;;;;;3.25;2.30;;;;;;;;;;4996424;28;20199;-79
2021/10/31 07:45:00;;;;;;;5.13;2.40;;;;;;;;;;4989547;28;20187;-80
2021/10/31 07:47:26;;;;;;;2.70;2.42;;;;;;;;;;4987557;28;20262;-82
2021/10/31 07:49:53;;;;;;;2.40;2.20;;;;;;;;;;4992850;28;20176;-82
2021/10/31 07:52:19;;;;;;;5.05;2.45;;;;;;;;;;4998755;28;20187;-82
2021/10/31 07:54:46;;;;;;;4.75;1.85;;;;;;;;;;4998985;28;20255;-83
2021/10/31 07:57:12;;;;;;;4.03;2.25;;;;;;;;;;5002135;28;20269;-79
2021/10/31 07:59:38;;;;;;;2.75;2.17;;;;;;;;;;4991884;28;20774;-80
2021/10/31 08:02:05;;;;;;;4.47;2.42;;;;;;;;;;5001880;28;20270;-80
2021/10/31 08:04:31;;;;;;;5.10;2.13;;;;;;;;;;4995085;28;20187;-79
2021/10/31 08:06:57;;;;;;;3.40;2.55;;;;;;;;;;4999011;28;20238;-80
2021/10/31 08:09:23;;;;;;;8.68;2.67;;;;;;;;;;4997901;28;20198;-81
2021/10/31 08:11:49;;;;;;;4.50;3.10;;;;;;;;;;4993871;28;20191;-82
2021/10/31 08:14:16;;;;;;;3.28;2.53;;;;;;;;;;4990009;28;20431;-81
2021/10/31 08:16:42;;;;;;;3.28;2.65;;;;;;;;;;4993728;28;20678;-81
2021/10/31 08:19:08;;;;;;;5.47;2.80;;;;;;;;;;5000947;28;20187;-81
2021/10/31 08:21:34;;;;;;;6.05;2.50;;;;;;;;;;4996230;28;20470;-83
2021/10/31 08:24:00;;;;;;;4.30;2.88;;;;;;;;;;5013519;28;20545;-83
2021/10/31 08:26:28;;;;;;;3.80;3.05;;;;;;;;;;4990623;28;20204;-81
2021/10/31 08:28:54;;;;;;;3.40;2.70;;;;;;;;;;4993347;28;20238;-81
2021/10/31 08:31:31;;;;;;;5.45;2.88;;;;;;;;;;4996306;28;20180;-81
2021/10/31 08:33:59;;;;;;;3.65;2.03;;;;;;;;;;4992875;28;20207;-81
2021/10/31 08:36:25;;;;;;;3.17;2.33;;;;;;;;;;4995271;28;20188;-83
2021/10/31 08:38:52;;;;;;;4.28;2.25;;;;;;;;;;5013999;28;20269;-81
2021/10/31 08:41:19;;;;;;;4.15;2.20;;;;;;;;;;5008152;28;20256;-81
2021/10/31 08:43:45;;;;;;;3.83;2.85;;;;;;;;;;4994915;28;20702;-80
2021/10/31 08:46:12;;;;;;;3.70;2.58;;;;;;;;;;4996138;28;20243;-79
2021/10/31 08:48:39;;;;;;;3.70;2.30;;;;;;;;;;4992932;28;20187;-81
2021/10/31 08:51:05;;;;;;;4.22;2.65;;;;;;;;;;5000347;28;20252;-82
2021/10/31 08:53:32;;;;;;;5.25;2.10;;;;;;;;;;4998246;28;20450;-80
2021/10/31 08:55:58;;;;;;;4.95;2.60;;;;;;;;;;4988674;28;20196;-79
2021/10/31 08:58:24;;;;;;;7.00;2.50;;;;;;;;;;4996134;28;20196;-79
2021/10/31 09:00:50;;;;;;;2.70;1.85;;;;;;;;;;4992811;28;20195;-79
2021/10/31 09:03:16;;;;;;;2.60;1.97;;;;;;;;;;5002216;28;20194;-79
2021/10/31 09:05:42;;;;;;;3.35;2.58;;;;;;;;;;4997016;28;20509;-80
2021/10/31 09:08:09;;;;;;;2.60;2.15;;;;;;;;;;4999412;28;20182;-80
2021/10/31 09:10:35;;;;;;;2.80;2.50;;;;;;;;;;4999224;28;20227;-79
2021/10/31 09:13:02;;;;;;;3.17;2.38;;;;;;;;;;4997560;28;20183;-80
2021/10/31 09:15:28;;;;;;;2.15;1.92;;;;;;;;;;5000673;28;20172;-79
2021/10/31 09:17:54;;;;;;;1.73;1.63;;;;;;;;;;4986543;28;20266;-78
2021/10/31 09:20:25;;;;;;;3.80;2.28;;;;;;;;;;4994726;28;20179;-78
2021/10/31 09:22:51;;;;;;;3.10;1.65;;;;;;;;;;4998778;28;20175;-79
2021/10/31 09:25:17;;;;;;;2.42;2.05;;;;;;;;;;5003716;28;20183;-81
2021/10/31 09:27:43;;;;;;;2.27;1.57;;;;;;;;;;5000222;28;20215;-79
2021/10/31 09:30:09;;;;;;;3.30;1.92;;;;;;;;;;5000909;28;20415;-79
2021/10/31 09:32:38;;;;;;;2.08;1.60;;;;;;;;;;4996090;28;20234;-80
2021/10/31 09:35:06;;;;;;;2.58;1.85;;;;;;;;;;4998974;28;20198;-78
2021/10/31 09:37:32;;;;;;;2.30;1.73;;;;;;;;;;4997950;28;20187;-78
2021/10/31 09:40:01;;;;;;;1.83;1.70;;;;;;;;;;5004017;28;20230;-79
2021/10/31 09:42:27;;;;;;;3.55;1.98;;;;;;;;;;4996074;28;20198;-79
2021/10/31 09:44:53;;;;;;;1.75;1.60;;;;;;;;;;4998548;28;20680;-80
2021/10/31 09:47:24;;;;;;;2.13;1.52;;;;;;;;;;4998041;28;20714;-80
2021/10/31 09:49:50;;;;;;;4.40;1.42;;;;;;;;;;4994616;28;20176;-79
2021/10/31 09:52:16;;;;;;;2.25;1.42;;;;;;;;;;5004172;28;20272;-78
2021/10/31 09:54:42;;;;;;;2.10;1.60;;;;;;;;;;4994824;28;20585;-79
2021/10/31 09:57:08;;;;;;;3.42;1.70;;;;;;;;;;4994844;28;20288;-80
2021/10/31 09:59:39;;;;;;;1.50;1.27;;;;;;;;;;5001632;28;20185;-79
2021/10/31 10:04:36;;;;;;;2.38;1.40;;;;;;;;;;4993637;28;20197;-80
2021/10/31 10:07:03;;;;;;;1.83;1.33;;;;;;;;;;4997448;28;20206;-81
2021/10/31 10:09:30;;;;;;;2.83;1.40;;;;;;;;;;4999687;28;20184;-80
2021/10/31 10:11:57;;;;;;;1.30;1.20;;;;;;;;;;5001705;28;20189;-78
2021/10/31 10:14:25;;;;;;;1.42;1.10;;;;;;;;;;4997546;28;20183;-81
2021/10/31 10:16:58;;;;;;;3.28;1.77;;;;;;;;;;4990921;28;20225;-80
2021/10/31 10:19:25;;;;;;;2.30;1.50;;;;;;;;;;5005179;28;20332;-82
2021/10/31 10:21:53;;;;;;;1.23;1.08;;;;;;;;;;4996445;28;20188;-84
2021/10/31 10:24:19;;;;;;;1.60;1.08;;;;;;;;;;4995380;28;20232;-81
2021/10/31 10:26:45;;;;;;;1.20;1.10;;;;;;;;;;4997200;28;20212;-82
2021/10/31 10:29:28;;;;;;;1.13;0.98;;;;;;;;;;4996799;28;20197;-82
2021/10/31 10:31:59;;;;;;;2.00;1.00;;;;;;;;;;4995762;28;20172;-82
2021/10/31 10:34:36;;;;;;;1.55;1.10;;;;;;;;;;5002647;28;20438;-82
2021/10/31 10:37:22;;;;;;;0.90;0.90;;;;;;;;;;5002041;28;20709;-82
2021/10/31 10:39:53;;;;;;;1.98;1.30;;;;;;;;;;4996780;28;20226;-85
2021/10/31 10:42:21;;;;;;;2.15;0.98;;;;;;;;;;4997000;28;20194;-82
2021/10/31 10:44:48;;;;;;;1.10;1.00;;;;;;;;;;5007970;28;20191;-85
2021/10/31 10:47:20;;;;;;;1.80;1.00;;;;;;;;;;4992203;28;20247;-82
2021/10/31 10:49:46;;;;;;;1.55;1.40;;;;;;;;;;4997920;28;20192;-80
2021/10/31 10:52:21;;;;;;;2.17;1.35;;;;;;;;;;4992987;28;20267;-80
2021/10/31 10:54:52;;;;;;;0.93;0.85;;;;;;;;;;4991804;28;20218;-79
2021/10/31 10:57:19;;;;;;;2.20;1.25;;;;;;;;;;5002643;28;20205;-81
2021/10/31 10:59:50;;;;;;;0.90;0.80;;;;;;;;;;4988271;28;20288;-78
2021/10/31 11:02:17;;;;;;;1.95;1.30;;;;;;;;;;5001866;28;20306;-80
2021/10/31 11:04:45;;;;;;;2.92;1.30;;;;;;;;;;5000916;28;20195;-80
2021/10/31 11:07:11;;;;;;;1.00;0.90;;;;;;;;;;4999561;28;20212;-80
2021/10/31 11:09:48;;;;;;;1.00;0.90;;;;;;;;;;4995710;28;20234;-77
2021/10/31 11:12:24;;;;;;;1.77;1.02;;;;;;;;;;5005733;28;20266;-81
2021/10/31 11:14:52;;;;;;;1.10;1.00;;;;;;;;;;4989592;28;20185;-78
2021/10/31 11:17:18;;;;;;;1.60;1.00;;;;;;;;;;4999765;28;20227;-80
2021/10/31 11:19:45;;;;;;;2.05;0.95;;;;;;;;;;5004647;28;20230;-79
2021/10/31 11:22:12;;;;;;;1.20;1.10;;;;;;;;;;4999075;28;20180;-78
2021/10/31 11:24:38;;;;;;;0.90;0.90;;;;;;;;;;4993532;28;20193;-81
2021/10/31 11:27:05;;;;;;;1.25;1.00;;;;;;;;;;5004130;28;20297;-79
2021/10/31 11:29:32;;;;;;;6.43;1.10;;;;;;;;;;4999727;28;20243;-78
2021/10/31 11:32:00;;;;;;;0.98;0.93;;;;;;;;;;5000929;28;20182;-80
2021/10/31 11:34:26;;;;;;;1.10;0.80;;;;;;;;;;5004835;28;20180;-79
2021/10/31 11:36:53;;;;;;;2.00;0.90;;;;;;;;;;5006868;28;20190;-79
2021/10/31 11:39:20;;;;;;;1.40;1.30;;;;;;;;;;5004835;28;20190;-79
2021/10/31 11:41:46;;;;;;;2.95;1.30;;;;;;;;;;4998553;28;20253;-78
2021/10/31 11:44:12;;;;;;;2.30;1.15;;;;;;;;;;4998631;28;20178;-79
2021/10/31 11:46:39;;;;;;;2.77;1.20;;;;;;;;;;4999459;28;20210;-79
2021/10/31 11:49:05;;;;;;;1.27;1.15;;;;;;;;;;4994215;28;20534;-78
2021/10/31 11:51:39;;;;;;;1.35;1.25;;;;;;;;;;5004056;28;20190;-77
2021/10/31 11:54:08;;;;;;;1.30;1.20;;;;;;;;;;4991623;28;20308;-78
2021/10/31 11:56:39;;;;;;;2.20;1.30;;;;;;;;;;4998906;28;20189;-81
2021/10/31 11:59:09;;;;;;;1.70;1.30;;;;;;;;;;5004083;28;20202;-79
2021/10/31 12:01:35;;;;;;;3.60;1.42;;;;;;;;;;4998338;28;20190;-80
2021/10/31 12:04:03;;;;;;;3.00;1.33;;;;;;;;;;4999846;28;20195;-79
2021/10/31 12:06:29;;;;;;;4.78;1.80;;;;;;;;;;4994151;28;20343;-80
2021/10/31 12:08:59;;;;;;;4.00;2.10;;;;;;;;;;4989196;28;20269;-80
2021/10/31 12:11:32;;;;;;;4.82;1.85;;;;;;;;;;4998347;28;20177;-79
2021/10/31 12:13:59;;;;;;;2.90;2.10;;;;;;;;;;4997682;28;20234;-80
2021/10/31 12:16:25;;;;;;;3.28;1.40;;;;;;;;;;4996241;28;20190;-79
2021/10/31 12:18:59;;;;;;;9.38;1.90;;;;;;;;;;5004685;28;20195;-79
2021/10/31 12:21:25;;;;;;;1.23;1.10;;;;;;;;;;4998272;28;20183;-79
2021/10/31 12:24:00;;;;;;;2.47;1.77;;;;;;;;;;4999283;28;20225;-79
2021/10/31 12:26:27;;;;;;;2.35;1.50;;;;;;;;;;4986968;28;20544;-79
2021/10/31 12:29:08;;;;;;;1.27;1.17;;;;;;;;;;4997183;28;20179;-79
2021/10/31 12:31:34;;;;;;;1.52;1.42;;;;;;;;;;4993280;28;20207;-78
2021/10/31 12:34:04;;;;;;;4.03;3.60;;;;;;;;;;4999068;28;20748;-79
2021/10/31 12:36:31;;;;;;;1.42;1.25;;;;;;;;;;5002010;28;20195;-81
2021/10/31 12:38:57;;;;;;;1.83;1.10;;;;;;;;;;5000498;28;20179;-79
2021/10/31 12:41:24;;;;;;;1.70;1.40;;;;;;;;;;4997393;28;20194;-80
2021/10/31 12:43:52;;;;;;;4.20;1.42;;;;;;;;;;4997463;28;20250;-79
2021/10/31 12:46:23;;;;;;;5.03;1.52;;;;;;;;;;4992552;28;20219;-79
2021/10/31 12:48:50;;;;;;;1.45;1.25;;;;;;;;;;4998700;28;20179;-79
2021/10/31 12:51:19;;;;;;;1.20;1.10;;;;;;;;;;5002538;28;20186;-79
2021/10/31 12:53:45;;;;;;;1.45;1.20;;;;;;;;;;4991663;28;20206;-80
2021/10/31 12:56:12;;;;;;;2.00;1.40;;;;;;;;;;4991081;28;20545;-80
2021/10/31 12:58:38;;;;;;;1.63;1.52;;;;;;;;;;5001839;28;20215;-79
2021/10/31 13:01:04;;;;;;;1.37;1.27;;;;;;;;;;4996754;28;20198;-78
2021/10/31 13:03:30;;;;;;;2.40;1.40;;;;;;;;;;5000729;28;20442;-78
2021/10/31 13:05:56;;;;;;;4.03;1.33;;;;;;;;;;4987512;28;20939;-79
2021/10/31 13:08:22;;;;;;;1.50;1.40;;;;;;;;;;4997974;28;20440;-79
2021/10/31 13:10:55;;;;;;;1.40;1.30;;;;;;;;;;4998525;28;20178;-79
2021/10/31 13:13:25;;;;;;;2.78;1.48;;;;;;;;;;4993525;28;20462;-79
2021/10/31 13:16:09;;;;;;;5.15;1.75;;;;;;;;;;4992085;28;20186;-78
2021/10/31 13:18:36;;;;;;;2.90;1.48;;;;;;;;;;4990879;28;20222;-78
2021/10/31 13:21:11;;;;;;;1.60;1.35;;;;;;;;;;4998762;28;20255;-79
2021/10/31 13:23:42;;;;;;;4.35;1.50;;;;;;;;;;4987649;28;20179;-78
2021/10/31 13:26:10;;;;;;;2.50;2.00;;;;;;;;;;4997789;28;20202;-81
2021/10/31 13:28:37;;;;;;;4.13;1.67;;;;;;;;;;4999876;28;20191;-79
2021/10/31 13:31:12;;;;;;;3.08;1.83;;;;;;;;;;4990434;28;20198;-79
2021/10/31 13:33:45;;;;;;;2.40;1.70;;;;;;;;;;5000802;28;20190;-80
2021/10/31 13:36:13;;;;;;;2.10;1.70;;;;;;;;;;4997320;28;20225;-81
2021/10/31 13:38:48;;;;;;;3.33;1.55;;;;;;;;;;4996680;28;20229;-84
2021/10/31 13:41:14;;;;;;;2.33;1.60;;;;;;;;;;4998415;28;20274;-80
2021/10/31 13:43:40;;;;;;;1.40;1.30;;;;;;;;;;4991815;28;20307;-81
2021/10/31 13:46:06;;;;;;;2.78;1.33;;;;;;;;;;4992096;28;20223;-81
2021/10/31 13:48:37;;;;;;;2.78;1.52;;;;;;;;;;5001390;28;20314;-82
2021/10/31 13:51:04;;;;;;;1.80;1.45;;;;;;;;;;5001910;28;20230;-78
2021/10/31 13:53:30;;;;;;;2.17;1.73;;;;;;;;;;4996548;28;20174;-80
2021/10/31 13:55:56;;;;;;;1.25;1.15;;;;;;;;;;4992264;28;20179;-78
2021/10/31 13:58:22;;;;;;;4.00;1.40;;;;;;;;;;4996083;28;20191;-77
2021/10/31 14:00:48;;;;;;;1.83;1.40;;;;;;;;;;4988858;28;20242;-78
2021/10/31 14:03:15;;;;;;;1.50;1.30;;;;;;;;;;5001422;28;20195;-78
2021/10/31 14:05:44;;;;;;;1.70;1.30;;;;;;;;;;5006774;28;20211;-77
2021/10/31 14:08:10;;;;;;;5.97;1.58;;;;;;;;;;5001411;28;20670;-77
2021/10/31 14:10:37;;;;;;;2.10;1.20;;;;;;;;;;5001226;28;20195;-78
2021/10/31 14:13:09;;;;;;;1.65;1.55;;;;;;;;;;5000771;28;20270;-78
2021/10/31 14:15:35;;;;;;;1.48;1.38;;;;;;;;;;5004623;28;20188;-82
2021/10/31 14:18:04;;;;;;;4.05;1.88;;;;;;;;;;5005753;28;20229;-79
2021/10/31 14:20:37;;;;;;;1.50;1.40;;;;;;;;;;4991088;28;20646;-79
2021/10/31 14:23:04;;;;;;;2.58;1.80;;;;;;;;;;5005754;28;20652;-79
2021/10/31 14:25:30;;;;;;;4.28;1.55;;;;;;;;;;4996444;28;20258;-81
2021/10/31 14:28:07;;;;;;;17.65;3.38;;;;;;;;;;5002288;28;20208;-83
2021/10/31 14:30:33;;;;;;;11.02;2.35;;;;;;;;;;4995482;28;20220;-80
2021/10/31 14:33:27;;;;;;;35.33;5.47;;;;;;;;;;4990017;28;20205;-79
2021/10/31 14:35:54;;;;;;;9.77;2.15;;;;;;;;;;5001736;28;20230;-81
2021/10/31 14:38:25;;;;;;;4.88;1.45;;;;;;;;;;4991600;28;20213;-80
2021/10/31 14:41:03;;;;;;;3.50;1.45;;;;;;;;;;4996643;28;20189;-83
2021/10/31 14:43:29;;;;;;;2.92;1.00;;;;;;;;;;5000767;28;20250;-82
2021/10/31 14:46:00;;;;;;;1.70;1.60;;;;;;;;;;5005670;28;20220;-83
2021/10/31 14:48:33;;;;;;;1.02;0.90;;;;;;;;;;5000253;28;20179;-87